Terminal Aerodrome Forecast
Issued by NWS Twin Cities, MN

Home | Current Version | Previous Version | Graphics & Text | Print | Product List | Glossary On
Versions: 1 2 3 4 5 6 7 8 9 10 11 12 13 14 15 16 17 18 19
000
FTUS43 KMPX 251400 AAA
TAFSTC
TAF AMD
KSTC 251448Z 2515/2612 15008KT P6SM BKN010 OVC035
     FM251800 17007KT P6SM SCT020 BKN040
     FM252100 28008KT P6SM BKN050
     FM260100 31003KT P6SM SKC
     FM260600 VRB02KT 6SM BR FEW007=

USA.gov is the U.S. government's official web portal to all federal, state and local government web resources and services.